Time;durP1;ratioP1;P1;durP2;ratioP2;P2;SDS_P1;SDS_P2;PMS_P1;PMS_P2;Temp;Humidity;BMP_temperature;BMP_pressure;BME280_temperature;BME280_humidity;BME280_pressure;Samples;Min_cycle;Max_cycle;Signal;HPM_P1;HPM_P2
2023/03/15 06:04:23;;;;;;;;;;;;;;;8.18;53.52;96991.22;4262544;27;10386;-73
2023/03/15 06:06:26;;;;;;;;;;;;;;;8.44;52.91;96988.31;4260505;27;5820;-72
2023/03/15 06:08:29;;;;;;;;;;;;;;;8.67;52.69;96996.22;4276431;27;5624;-72
2023/03/15 06:10:32;;;;;;;;;;;;;;;8.87;52.29;96990.47;4266748;27;5793;-72
2023/03/15 06:12:35;;;;;;;;;;;;;;;8.98;52.21;96993.50;4274484;27;5758;-72
2023/03/15 06:14:38;;;;;;;;;;;;;;;9.06;52.15;96989.97;4268739;27;5850;-73
2023/03/15 06:16:41;;;;;;;;;;;;;;;9.16;52.15;96993.16;4268129;27;5632;-71
2023/03/15 06:18:44;;;;;;;;;;;;;;;9.26;51.82;96987.63;4277985;27;5415;-72
2023/03/15 06:20:48;;;;;;;;;;;;;;;9.36;51.46;96997.94;4274483;27;6981;-71
2023/03/15 06:22:51;;;;;;;;;;;;;;;9.41;51.55;96999.03;4262250;27;5747;-68
2023/03/15 06:24:54;;;;;;;;;;;;;;;9.43;51.61;96997.03;4268773;27;5643;-66
2023/03/15 06:26:57;;;;;;;;;;;;;;;9.48;51.60;97002.56;4266416;27;5646;-66
2023/03/15 06:29:00;;;;;;;;;;;;;;;9.53;51.31;96997.59;4274105;27;5624;-66
2023/03/15 06:31:07;;;;;;;;;;;;;;;9.56;51.22;97012.25;4275039;27;5594;-65
2023/03/15 06:33:10;;;;;;;;;;;;;;;9.55;51.22;97013.25;4274033;27;5648;-66
2023/03/15 06:35:14;;;;;;;;;;;;;;;9.61;51.05;97012.50;4281855;27;5747;-67
2023/03/15 06:37:18;;;;;;;;;;;;;;;9.62;50.90;97025.50;4265971;27;5640;-67
2023/03/15 06:39:37;;;;;;;;;;;;;;;9.61;50.99;97020.41;4265286;27;5632;-68
2023/03/15 06:41:40;;;;;;;;;;;;;;;9.64;50.93;97020.06;4277154;27;5617;-65
2023/03/15 06:43:43;;;;;;;;;;;;;;;9.63;50.70;97023.72;4277094;27;5665;-66
2023/03/15 06:45:46;;;;;;;;;;;;;;;9.62;50.66;97032.63;4274092;27;5720;-66
2023/03/15 06:47:49;;;;;;;;;;;;;;;9.66;50.73;97033.09;4273845;27;5664;-66
2023/03/15 06:49:52;;;;;;;;;;;;;;;9.71;50.79;97038.63;4273854;27;5794;-65
2023/03/15 06:51:56;;;;;;;;;;;;;;;9.72;50.47;97040.28;4274073;27;5079;-66
2023/03/15 06:54:00;;;;;;;;;;;;;;;9.71;50.38;97036.81;4268982;27;5558;-66
2023/03/15 06:56:03;;;;;;;;;;;;;;;9.77;50.64;97044.03;4273708;27;5619;-66
2023/03/15 06:58:06;;;;;;;;;;;;;;;9.81;50.44;97052.38;4272543;27;5579;-66
2023/03/15 07:00:10;;;;;;;;;;;;;;;9.80;50.52;97045.47;4266615;27;5721;-66
2023/03/15 07:02:15;;;;;;;;;;;;;;;9.79;50.31;97052.56;4272243;27;5602;-67
2023/03/15 07:04:20;;;;;;;;;;;;;;;9.82;50.18;97051.38;4258330;27;6507;-65
2023/03/15 07:06:23;;;;;;;;;;;;;;;9.85;50.17;97053.66;4261356;27;5105;-66
2023/03/15 07:08:26;;;;;;;;;;;;;;;9.89;50.26;97054.94;4260451;27;5598;-66
2023/03/15 07:10:30;;;;;;;;;;;;;;;9.92;49.92;97054.56;4262462;27;5677;-66
2023/03/15 07:12:33;;;;;;;;;;;;;;;9.95;50.06;97059.47;4255842;27;5629;-66
2023/03/15 07:14:36;;;;;;;;;;;;;;;9.97;50.01;97057.50;4259277;27;5633;-67
2023/03/15 07:16:39;;;;;;;;;;;;;;;9.93;50.11;97054.38;4259457;27;5615;-67
2023/03/15 07:18:42;;;;;;;;;;;;;;;9.91;49.89;97064.31;4261436;27;5595;-66
2023/03/15 07:20:45;;;;;;;;;;;;;;;9.88;50.23;97055.94;4256079;27;5624;-64
2023/03/15 07:22:48;;;;;;;;;;;;;;;9.91;49.90;97059.03;4261796;27;5629;-65
2023/03/15 07:24:51;;;;;;;;;;;;;;;9.93;50.15;97072.06;4257037;27;5625;-65
2023/03/15 07:26:56;;;;;;;;;;;;;;;9.93;49.99;97079.97;4262779;27;5625;-66
2023/03/15 07:28:58;;;;;;;;;;;;;;;9.96;49.91;97074.31;4258905;27;5642;-66
2023/03/15 07:31:03;;;;;;;;;;;;;;;10.00;50.16;97072.97;4261684;27;5602;-67
2023/03/15 07:33:06;;;;;;;;;;;;;;;10.02;49.52;97080.72;4258754;27;6314;-66
2023/03/15 07:35:12;;;;;;;;;;;;;;;9.99;49.92;97079.25;4259512;27;5736;-66
2023/03/15 07:37:17;;;;;;;;;;;;;;;9.99;49.99;97079.25;4260750;27;5610;-65
2023/03/15 07:39:19;;;;;;;;;;;;;;;10.02;49.89;97075.44;4260657;27;5615;-66
2023/03/15 07:41:22;;;;;;;;;;;;;;;10.04;49.80;97082.16;4257165;27;5636;-66
2023/03/15 07:43:28;;;;;;;;;;;;;;;10.09;49.87;97086.91;4261573;27;5610;-66
2023/03/15 07:45:30;;;;;;;;;;;;;;;10.07;49.65;97089.72;4260410;27;5582;-66
2023/03/15 07:47:34;;;;;;;;;;;;;;;10.07;49.65;97088.91;4258834;27;5628;-66
2023/03/15 07:49:36;;;;;;;;;;;;;;;10.05;49.42;97086.44;4260084;27;5620;-67
2023/03/15 07:51:41;;;;;;;;;;;;;;;10.04;49.23;97090.09;4260598;27;5685;-67
2023/03/15 07:53:44;;;;;;;;;;;;;;;10.04;49.47;97091.91;4259116;27;5628;-67
2023/03/15 07:55:47;;;;;;;;;;;;;;;10.06;49.17;97093.38;4259409;27;5633;-65
2023/03/15 07:57:50;;;;;;;;;;;;;;;10.08;49.39;97095.81;4253288;27;5625;-66
2023/03/15 07:59:57;;;;;;;;;;;;;;;10.06;49.25;97097.81;4256073;27;6325;-66
2023/03/15 08:02:00;;;;;;;;;;;;;;;10.05;49.09;97099.66;4247645;27;5632;-66
2023/03/15 08:04:05;;;;;;;;;;;;;;;10.09;49.06;97102.75;4257940;27;5590;-65
2023/03/15 08:06:08;;;;;;;;;;;;;;;10.11;49.30;97106.84;4245393;27;5736;-66
2023/03/15 08:08:12;;;;;;;;;;;;;;;10.16;49.08;97099.19;4252037;27;5822;-67
2023/03/15 08:10:16;;;;;;;;;;;;;;;10.18;49.08;97099.81;4252471;27;5913;-64
2023/03/15 08:12:19;;;;;;;;;;;;;;;10.24;48.91;97108.88;4244248;27;5695;-64
2023/03/15 08:14:23;;;;;;;;;;;;;;;10.22;49.03;97102.97;4260719;27;5645;-64
2023/03/15 08:16:27;;;;;;;;;;;;;;;10.25;48.67;97107.88;4258786;27;5183;-64
2023/03/15 08:18:30;;;;;;;;;;;;;;;10.30;48.68;97099.41;4252415;27;5628;-64
2023/03/15 08:20:33;;;;;;;;;;;;;;;10.29;48.42;97105.69;4260864;27;5619;-64
2023/03/15 08:22:36;;;;;;;;;;;;;;;10.31;48.60;97101.06;4252146;27;6321;-64
2023/03/15 08:24:40;;;;;;;;;;;;;;;10.34;48.48;97104.16;4252043;27;5785;-63
2023/03/15 08:26:44;;;;;;;;;;;;;;;10.36;48.13;97096.84;4268073;27;5615;-64
2023/03/15 08:28:46;;;;;;;;;;;;;;;10.40;47.92;97110.50;4260730;27;5610;-64
2023/03/15 08:30:49;;;;;;;;;;;;;;;10.37;48.26;97101.13;4260921;27;5658;-64
2023/03/15 08:32:54;;;;;;;;;;;;;;;10.39;48.33;97104.41;4269066;27;5603;-64
2023/03/15 08:34:57;;;;;;;;;;;;;;;10.40;48.33;97107.84;4263868;27;5620;-63
2023/03/15 08:37:00;;;;;;;;;;;;;;;10.42;48.28;97101.41;4257727;27;5665;-63
2023/03/15 08:39:04;;;;;;;;;;;;;;;10.44;47.87;97096.75;4247297;27;5657;-64
2023/03/15 08:41:07;;;;;;;;;;;;;;;10.41;48.30;97102.38;4251422;27;5643;-64
2023/03/15 08:43:10;;;;;;;;;;;;;;;10.45;47.99;97098.38;4256606;27;5820;-64
2023/03/15 08:45:13;;;;;;;;;;;;;;;10.45;47.95;97103.69;4251392;27;5616;-64
2023/03/15 08:47:16;;;;;;;;;;;;;;;10.47;48.08;97106.94;4248188;27;6337;-64
2023/03/15 08:49:20;;;;;;;;;;;;;;;10.50;47.91;97106.56;4243195;27;5632;-64
2023/03/15 08:51:24;;;;;;;;;;;;;;;10.48;48.00;97110.41;4245334;27;5665;-64
2023/03/15 08:53:27;;;;;;;;;;;;;;;10.51;47.89;97112.69;4250632;27;5624;-63
2023/03/15 08:55:30;;;;;;;;;;;;;;;10.56;47.43;97109.50;4246529;27;5799;-64
2023/03/15 08:57:33;;;;;;;;;;;;;;;10.56;47.63;97104.22;4251449;27;5615;-64
2023/03/15 08:59:36;;;;;;;;;;;;;;;10.57;47.64;97105.84;4251305;27;6546;-64
2023/03/15 09:01:39;;;;;;;;;;;;;;;10.58;47.57;97112.78;4251551;27;5858;-64
2023/03/15 09:03:42;;;;;;;;;;;;;;;10.58;47.65;97107.47;4250427;27;5748;-64
2023/03/15 09:05:47;;;;;;;;;;;;;;;10.57;47.80;97100.56;4249631;27;5744;-64
2023/03/15 09:07:51;;;;;;;;;;;;;;;10.61;47.66;97107.09;4250742;27;5766;-64
2023/03/15 09:09:54;;;;;;;;;;;;;;;10.63;47.36;97105.09;4245835;27;5692;-63
2023/03/15 09:11:58;;;;;;;;;;;;;;;10.64;47.08;97101.44;4248394;27;5613;-64
2023/03/15 09:14:00;;;;;;;;;;;;;;;10.66;47.39;97110.03;4251282;27;5636;-65
2023/03/15 09:16:03;;;;;;;;;;;;;;;10.68;47.17;97113.31;4250476;27;5616;-65
2023/03/15 09:18:09;;;;;;;;;;;;;;;10.70;46.88;97113.94;4251354;27;5683;-63
2023/03/15 09:20:15;;;;;;;;;;;;;;;10.71;46.96;97118.22;4251261;27;5114;-63
2023/03/15 09:22:19;;;;;;;;;;;;;;;10.73;46.90;97126.78;4250962;27;5640;-63
2023/03/15 09:24:40;;;;;;;;;;;;;;;10.74;46.59;97118.66;4248589;27;5632;-64
2023/03/15 09:26:43;;;;;;;;;;;;;;;10.72;46.90;97122.50;4251353;27;5723;-64
2023/03/15 09:28:46;;;;;;;;;;;;;;;10.72;46.78;97119.84;4250825;27;5635;-65
2023/03/15 09:30:49;;;;;;;;;;;;;;;10.77;46.75;97112.19;4251244;27;5174;-64
2023/03/15 09:32:52;;;;;;;;;;;;;;;10.78;46.54;97124.41;4247243;27;5589;-68
2023/03/15 09:34:55;;;;;;;;;;;;;;;10.85;46.63;97121.81;4243040;27;5768;-69
2023/03/15 09:36:58;;;;;;;;;;;;;;;10.88;46.75;97119.63;4247946;27;5744;-68
2023/03/15 09:39:03;;;;;;;;;;;;;;;10.95;46.24;97125.81;4249292;27;5711;-65
2023/03/15 09:41:06;;;;;;;;;;;;;;;10.98;46.53;97133.34;4249376;27;5640;-64
2023/03/15 09:43:37;;;;;;;;;;;;;;;10.99;46.02;97121.78;4256845;27;5693;-65
2023/03/15 09:46:00;;;;;;;;;;;;;;;10.97;46.14;97126.44;4239430;27;5664;-67
2023/03/15 09:48:09;;;;;;;;;;;;;;;10.94;46.51;97133.94;4239905;27;5840;-66
2023/03/15 09:50:21;;;;;;;;;;;;;;;10.96;46.29;97132.72;4254207;27;5621;-67
2023/03/15 09:52:35;;;;;;;;;;;;;;;11.01;46.09;97132.19;4243422;27;5719;-66
2023/03/15 09:54:44;;;;;;;;;;;;;;;11.05;46.05;97126.31;4257876;27;5683;-67
2023/03/15 09:56:56;;;;;;;;;;;;;;;11.03;46.08;97133.63;4254588;27;5614;-64
2023/03/15 09:59:01;;;;;;;;;;;;;;;11.05;45.78;97126.31;4265033;27;5595;-68
2023/03/15 10:01:08;;;;;;;;;;;;;;;11.07;45.92;97124.28;4268230;27;5716;-67
2023/03/15 10:03:20;;;;;;;;;;;;;;;11.08;45.74;97119.81;4245567;27;5731;-67
2023/03/15 10:05:31;;;;;;;;;;;;;;;11.09;45.84;97122.28;4238652;27;7840;-62
2023/03/15 10:07:35;;;;;;;;;;;;;;;11.13;46.16;97122.75;4256448;27;5577;-65
2023/03/15 10:09:38;;;;;;;;;;;;;;;11.16;45.93;97122.34;4250136;27;6497;-64
2023/03/15 10:11:49;;;;;;;;;;;;;;;11.19;46.05;97126.44;4262394;27;5606;-64
2023/03/15 10:14:05;;;;;;;;;;;;;;;11.18;45.58;97124.81;4254524;27;5759;-63
2023/03/15 10:16:23;;;;;;;;;;;;;;;11.18;45.85;97130.09;4257616;27;5807;-63
2023/03/15 10:18:39;;;;;;;;;;;;;;;11.18;45.67;97130.09;4258160;27;5621;-68
2023/03/15 10:20:46;;;;;;;;;;;;;;;11.23;45.73;97138.31;4250949;27;5781;-68
2023/03/15 10:22:56;;;;;;;;;;;;;;;11.26;45.40;97137.94;4245766;27;5620;-64
2023/03/15 10:25:04;;;;;;;;;;;;;;;11.24;45.42;97143.41;4258421;27;5632;-73
2023/03/15 10:27:15;;;;;;;;;;;;;;;11.21;45.37;97143.78;4257534;27;5639;-62
2023/03/15 10:29:23;;;;;;;;;;;;;;;11.21;45.23;97140.31;4250456;27;5707;-68
2023/03/15 10:31:31;;;;;;;;;;;;;;;11.22;45.36;97137.50;4242920;27;5653;-65
2023/03/15 10:33:48;;;;;;;;;;;;;;;11.22;45.28;97139.31;4252961;27;5918;-65
2023/03/15 10:35:51;;;;;;;;;;;;;;;11.21;44.99;97133.22;4257910;27;5657;-66
2023/03/15 10:38:01;;;;;;;;;;;;;;;11.24;45.03;97134.66;4257349;27;5614;-66
2023/03/15 10:40:06;;;;;;;;;;;;;;;11.26;45.21;97130.00;4251588;27;5912;-66
2023/03/15 10:42:26;;;;;;;;;;;;;;;11.32;44.75;97127.38;4255101;27;5818;-66
2023/03/15 10:44:30;;;;;;;;;;;;;;;11.37;45.04;97126.84;4237155;27;5637;-66
2023/03/15 10:46:34;;;;;;;;;;;;;;;11.42;44.73;97128.91;4237235;28;5704;-66
2023/03/15 10:48:39;;;;;;;;;;;;;;;11.45;44.83;97125.91;4259436;27;5615;-66
2023/03/15 10:50:43;;;;;;;;;;;;;;;11.45;44.51;97121.41;4259205;27;5710;-66
2023/03/15 10:52:46;;;;;;;;;;;;;;;11.43;44.45;97123.41;4256445;27;5803;-66
2023/03/15 10:54:52;;;;;;;;;;;;;;;11.46;44.48;97117.75;4267630;27;5768;-66
2023/03/15 10:57:13;;;;;;;;;;;;;;;11.50;44.46;97123.47;4260057;27;5607;-66
2023/03/15 10:59:19;;;;;;;;;;;;;;;11.50;44.37;97119.00;4261443;27;5602;-68
2023/03/15 11:01:24;;;;;;;;;;;;;;;11.48;44.71;97115.75;4252875;27;5829;-68
2023/03/15 11:03:28;;;;;;;;;;;;;;;11.49;44.18;97122.66;4269581;27;5599;-69
2023/03/15 11:05:38;;;;;;;;;;;;;;;11.46;44.53;97114.28;4252956;27;5699;-69
2023/03/15 11:07:54;;;;;;;;;;;;;;;11.49;44.32;97112.06;4262215;27;5616;-69
2023/03/15 11:10:01;;;;;;;;;;;;;;;11.55;44.18;97115.78;4244289;27;5647;-69
2023/03/15 11:12:06;;;;;;;;;;;;;;;11.59;44.01;97107.28;4249813;27;5613;-68
2023/03/15 11:14:12;;;;;;;;;;;;;;;11.62;44.08;97111.34;4250733;27;5637;-68
2023/03/15 11:16:21;;;;;;;;;;;;;;;11.63;43.74;97107.69;4253022;27;5711;-68
2023/03/15 11:18:28;;;;;;;;;;;;;;;11.64;43.79;97102.22;4245427;27;5079;-68
2023/03/15 11:20:34;;;;;;;;;;;;;;;11.66;43.58;97105.50;4253054;27;5633;-69
2023/03/15 11:22:37;;;;;;;;;;;;;;;11.71;43.54;97109.41;4252840;27;5616;-69
2023/03/15 11:24:40;;;;;;;;;;;;;;;11.73;43.55;97102.88;4255779;27;5622;-69
2023/03/15 11:26:50;;;;;;;;;;;;;;;11.72;43.40;97103.91;4260889;27;5631;-68
2023/03/15 11:28:56;;;;;;;;;;;;;;;11.71;43.38;97096.16;4248467;27;5720;-69
2023/03/15 11:31:03;;;;;;;;;;;;;;;11.71;43.31;97096.16;4253048;27;5688;-69
2023/03/15 11:33:14;;;;;;;;;;;;;;;11.70;43.26;97095.34;4255806;27;5593;-68
2023/03/15 11:35:33;;;;;;;;;;;;;;;11.70;43.15;97095.34;4252965;27;5703;-68
2023/03/15 11:37:41;;;;;;;;;;;;;;;11.71;43.26;97098.81;4246980;27;5643;-69
2023/03/15 11:39:51;;;;;;;;;;;;;;;11.72;43.03;97095.16;4256415;27;5595;-69
2023/03/15 11:42:10;;;;;;;;;;;;;;;11.75;42.92;97086.81;4254864;27;5628;-69
2023/03/15 11:44:20;;;;;;;;;;;;;;;11.77;42.72;97077.66;4260514;27;5619;-69
2023/03/15 11:46:28;;;;;;;;;;;;;;;11.78;42.81;97070.50;4258788;27;5716;-68
2023/03/15 11:48:40;;;;;;;;;;;;;;;11.83;42.50;97081.41;4252542;27;5637;-69
2023/03/15 11:50:43;;;;;;;;;;;;;;;11.81;42.54;97073.66;4257174;27;5595;-69
2023/03/15 11:52:48;;;;;;;;;;;;;;;11.80;42.60;97072.00;4255383;27;5803;-70
2023/03/15 11:54:55;;;;;;;;;;;;;;;11.82;42.43;97071.81;4250772;27;5753;-69
2023/03/15 11:57:05;;;;;;;;;;;;;;;11.84;42.29;97072.44;4252567;27;6204;-69
2023/03/15 11:59:11;;;;;;;;;;;;;;;11.87;42.29;97072.84;4252335;27;5723;-68
2023/03/15 12:01:29;;;;;;;;;;;;;;;11.90;42.41;97072.50;4247982;27;5613;-69
2023/03/15 12:03:37;;;;;;;;;;;;;;;11.95;42.02;97077.19;4243328;27;5616;-68
2023/03/15 12:05:48;;;;;;;;;;;;;;;11.96;41.84;97076.19;4251350;27;5645;-67
2023/03/15 12:07:59;;;;;;;;;;;;;;;11.89;41.73;97076.16;4252363;27;5745;-68
2023/03/15 12:10:32;;;;;;;;;;;;;;;11.85;41.50;97068.78;4252138;27;5640;-68
2023/03/15 12:12:44;;;;;;;;;;;;;;;11.84;41.31;97059.19;4242516;27;5738;-67
2023/03/15 12:14:48;;;;;;;;;;;;;;;11.79;41.46;97053.63;4250973;27;5628;-67
2023/03/15 12:16:51;;;;;;;;;;;;;;;11.77;41.17;97051.16;4248737;27;5887;-67
2023/03/15 12:18:57;;;;;;;;;;;;;;;11.73;41.41;97054.41;4260570;27;5795;-67
2023/03/15 12:21:20;;;;;;;;;;;;;;;11.75;41.17;97053.19;4252093;27;5715;-67
2023/03/15 12:23:36;;;;;;;;;;;;;;;11.79;40.87;97048.34;4244485;27;5688;-67
2023/03/15 12:25:49;;;;;;;;;;;;;;;11.84;41.13;97045.94;4246181;27;5730;-66
2023/03/15 12:27:58;;;;;;;;;;;;;;;11.91;40.79;97047.63;4263705;27;5728;-67
2023/03/15 12:30:02;;;;;;;;;;;;;;;11.94;40.41;97051.72;4252063;27;5627;-66
2023/03/15 12:32:13;;;;;;;;;;;;;;;11.94;40.55;97046.41;4251968;27;5685;-68
2023/03/15 12:34:38;;;;;;;;;;;;;;;11.99;40.63;97036.03;4251561;27;5583;-67
2023/03/15 12:36:46;;;;;;;;;;;;;;;12.01;40.19;97041.97;4249284;27;5624;-67
2023/03/15 12:39:01;;;;;;;;;;;;;;;12.01;40.28;97049.13;4251687;27;5704;-67
2023/03/15 12:41:08;;;;;;;;;;;;;;;11.99;40.30;97043.97;4252170;27;5652;-67
2023/03/15 12:43:12;;;;;;;;;;;;;;;11.95;40.09;97037.44;4240949;27;5402;-67
2023/03/15 12:45:45;;;;;;;;;;;;;;;11.97;39.89;97035.41;4248237;27;7680;-66
2023/03/15 12:48:23;;;;;;;;;;;;;;;12.01;40.01;97031.38;4201055;28;5674;-67
2023/03/15 12:50:38;;;;;;;;;;;;;;;12.05;40.25;97032.63;4204955;28;5681;-67
2023/03/15 12:52:43;;;;;;;;;;;;;;;12.04;39.92;97014.28;4203887;28;5663;-67
2023/03/15 12:54:50;;;;;;;;;;;;;;;12.06;40.17;97017.53;4192974;28;6519;-67
2023/03/15 12:56:55;;;;;;;;;;;;;;;12.07;39.81;97016.50;4198190;28;5733;-67
2023/03/15 12:59:03;;;;;;;;;;;;;;;12.09;40.09;97015.28;4204021;28;5759;-67
2023/03/15 13:01:07;;;;;;;;;;;;;;;12.12;39.75;97022.06;4207025;28;5869;-68
2023/03/15 13:03:15;;;;;;;;;;;;;;;12.12;39.59;97022.06;4201390;28;5677;-67
2023/03/15 13:05:24;;;;;;;;;;;;;;;12.11;39.94;97009.78;4198477;28;5795;-67
2023/03/15 13:07:40;;;;;;;;;;;;;;;12.13;39.74;97011.25;4199361;28;5858;-68
2023/03/15 13:10:13;;;;;;;;;;;;;;;12.15;39.47;97001.28;4202036;28;5752;-67
2023/03/15 13:12:24;;;;;;;;;;;;;;;12.16;39.48;97005.56;4198357;28;5650;-67
2023/03/15 13:14:38;;;;;;;;;;;;;;;12.15;39.37;97001.28;4198598;28;5286;-63
2023/03/15 13:16:47;;;;;;;;;;;;;;;12.15;39.50;97009.22;4199723;28;7702;-65
2023/03/15 13:19:04;;;;;;;;;;;;;;;12.15;39.54;96990.66;4198494;28;6242;-64
2023/03/15 13:21:18;;;;;;;;;;;;;;;12.16;39.49;96996.78;4199956;28;5561;-65
2023/03/15 13:23:26;;;;;;;;;;;;;;;12.17;39.48;97001.06;4200698;27;5645;-66
2023/03/15 13:25:34;;;;;;;;;;;;;;;12.15;39.51;97003.91;4260635;27;5606;-69
2023/03/15 13:27:48;;;;;;;;;;;;;;;12.15;39.40;96995.97;4259733;27;5625;-66
2023/03/15 13:29:51;;;;;;;;;;;;;;;12.15;39.32;96998.63;4255382;27;5582;-62
2023/03/15 13:32:13;;;;;;;;;;;;;;;12.17;39.15;97003.72;4251199;27;5913;-63
2023/03/15 13:34:20;;;;;;;;;;;;;;;12.18;39.06;96995.56;4249703;27;6764;-65
2023/03/15 13:36:27;;;;;;;;;;;;;;;12.19;38.81;97002.50;4257482;27;5706;-66
2023/03/15 13:38:32;;;;;;;;;;;;;;;12.21;38.71;97000.47;4259537;27;5602;-69
2023/03/15 13:40:35;;;;;;;;;;;;;;;12.23;38.70;97008.22;4248686;27;5641;-66
2023/03/15 13:42:39;;;;;;;;;;;;;;;12.20;39.10;97004.13;4246165;27;5778;-66
2023/03/15 13:44:42;;;;;;;;;;;;;;;12.19;38.92;97005.16;4250899;27;5620;-65
2023/03/15 13:46:49;;;;;;;;;;;;;;;12.20;38.58;96998.84;4249301;27;5588;-69
2023/03/15 13:48:56;;;;;;;;;;;;;;;12.18;38.57;96995.56;4255214;27;5629;-66
2023/03/15 13:51:05;;;;;;;;;;;;;;;12.15;38.71;96995.97;4252057;27;5718;-66
2023/03/15 13:53:16;;;;;;;;;;;;;;;12.20;38.86;96992.72;4248398;27;5755;-70
2023/03/15 13:55:23;;;;;;;;;;;;;;;12.21;38.71;96995.16;4253949;27;5101;-64
2023/03/15 13:57:27;;;;;;;;;;;;;;;12.24;38.74;96988.66;4235378;27;5750;-64
2023/03/15 13:59:34;;;;;;;;;;;;;;;12.28;38.76;96991.72;4259337;27;5610;-63
2023/03/15 14:01:41;;;;;;;;;;;;;;;12.29;38.69;96988.06;4260362;27;5163;-65
2023/03/15 14:03:49;;;;;;;;;;;;;;;12.28;38.44;96987.25;4263366;27;8372;-67
2023/03/15 14:05:54;;;;;;;;;;;;;;;12.27;38.58;96982.97;4255606;27;5670;-68
2023/03/15 14:08:01;;;;;;;;;;;;;;;12.30;38.61;96987.03;4254664;27;6327;-75
2023/03/15 14:10:25;;;;;;;;;;;;;;;12.32;38.55;96980.53;4250957;27;5664;-70
2023/03/15 14:12:30;;;;;;;;;;;;;;;12.34;38.15;96988.28;4250913;27;5972;-73
2023/03/15 14:14:38;;;;;;;;;;;;;;;12.36;37.97;96986.25;4254662;27;5593;-71
2023/03/15 14:16:44;;;;;;;;;;;;;;;12.36;37.87;96986.25;4262972;27;5653;-69
2023/03/15 14:19:17;;;;;;;;;;;;;;;12.30;37.81;96982.56;4262996;27;6568;-68
2023/03/15 14:21:31;;;;;;;;;;;;;;;12.29;38.18;96985.41;4254824;27;5566;-67
2023/03/15 14:23:37;;;;;;;;;;;;;;;12.30;37.80;96984.41;4259614;27;5555;-66
2023/03/15 14:25:42;;;;;;;;;;;;;;;12.29;38.03;96991.53;4245345;27;5695;-67
2023/03/15 14:27:45;;;;;;;;;;;;;;;12.30;37.85;96982.56;4248034;27;6334;-73
2023/03/15 14:29:50;;;;;;;;;;;;;;;12.32;37.44;96985.00;4254169;27;5903;-67
2023/03/15 14:32:00;;;;;;;;;;;;;;;12.32;37.50;96985.81;4251534;27;5590;-68
2023/03/15 14:34:08;;;;;;;;;;;;;;;12.29;37.38;96985.41;4245864;27;5582;-66
2023/03/15 14:36:23;;;;;;;;;;;;;;;12.30;37.42;96987.03;4262747;27;5701;-65
2023/03/15 14:38:32;;;;;;;;;;;;;;;12.27;37.16;96992.75;4253730;27;5645;-67
2023/03/15 14:40:38;;;;;;;;;;;;;;;12.30;37.11;96997.66;4251770;27;5589;-69
2023/03/15 14:42:42;;;;;;;;;;;;;;;12.33;37.12;96982.16;4258696;27;5634;-67
2023/03/15 14:44:45;;;;;;;;;;;;;;;12.30;37.01;96992.34;4249825;27;5726;-67
2023/03/15 14:46:49;;;;;;;;;;;;;;;12.23;37.03;96987.00;4249336;27;6313;-68
2023/03/15 14:48:52;;;;;;;;;;;;;;;12.23;37.14;96993.16;4253693;27;5587;-66
2023/03/15 14:50:56;;;;;;;;;;;;;;;12.28;37.35;96983.78;4253411;27;5613;-66
2023/03/15 14:52:59;;;;;;;;;;;;;;;12.32;37.22;96982.34;4250122;27;5657;-68
2023/03/15 14:55:02;;;;;;;;;;;;;;;12.35;37.06;96985.44;4259416;27;5844;-66
2023/03/15 14:57:05;;;;;;;;;;;;;;;12.37;37.12;96991.34;4250966;27;5736;-69
2023/03/15 14:59:12;;;;;;;;;;;;;;;12.39;36.78;96991.16;4253525;27;5662;-70
2023/03/15 15:01:21;;;;;;;;;;;;;;;12.39;36.91;96985.84;4255907;27;5593;-68
2023/03/15 15:03:31;;;;;;;;;;;;;;;12.37;36.86;96983.41;4243950;27;5726;-68
2023/03/15 15:05:35;;;;;;;;;;;;;;;12.39;36.52;96991.16;4253513;27;5079;-73
2023/03/15 15:07:38;;;;;;;;;;;;;;;12.38;37.06;96987.69;4252995;27;5795;-72
2023/03/15 15:09:47;;;;;;;;;;;;;;;12.41;36.78;96991.78;4252281;27;5652;-70
2023/03/15 15:11:50;;;;;;;;;;;;;;;12.42;36.64;96994.22;4245146;27;5620;-68
2023/03/15 15:13:57;;;;;;;;;;;;;;;12.44;36.54;96994.81;4257968;27;6325;-77
2023/03/15 15:16:01;;;;;;;;;;;;;;;12.45;36.37;96996.47;4253506;27;5645;-75
2023/03/15 15:18:04;;;;;;;;;;;;;;;12.45;36.37;96993.81;4252110;27;5773;-68
2023/03/15 15:20:10;;;;;;;;;;;;;;;12.46;36.09;96998.13;4247100;27;5810;-69
2023/03/15 15:22:14;;;;;;;;;;;;;;;12.45;36.21;96998.28;4252943;27;5621;-68
2023/03/15 15:24:21;;;;;;;;;;;;;;;12.46;35.85;97002.63;4252932;27;5729;-68
2023/03/15 15:26:26;;;;;;;;;;;;;;;12.43;35.93;97014.41;4241579;27;5634;-73
2023/03/15 15:28:32;;;;;;;;;;;;;;;12.44;35.77;97007.28;4254787;27;5640;-82
2023/03/15 15:30:39;;;;;;;;;;;;;;;12.45;35.79;97007.06;4255552;27;5973;-71
2023/03/15 15:32:44;;;;;;;;;;;;;;;12.45;35.58;97009.72;4249058;27;5913;-73
2023/03/15 15:34:47;;;;;;;;;;;;;;;12.45;35.20;97007.06;4251990;27;5849;-73
2023/03/15 15:36:50;;;;;;;;;;;;;;;12.45;35.12;97001.75;4243951;27;5736;-73
2023/03/15 15:38:54;;;;;;;;;;;;;;;12.46;34.89;97007.91;4241036;27;5691;-73
2023/03/15 15:40:56;;;;;;;;;;;;;;;12.44;34.79;96992.19;4246235;27;6446;-73
2023/03/15 15:43:02;;;;;;;;;;;;;;;12.45;34.81;96993.00;4250555;27;5727;-73
2023/03/15 15:45:11;;;;;;;;;;;;;;;12.45;34.92;97000.94;4251045;27;5636;-74
2023/03/15 15:47:14;;;;;;;;;;;;;;;12.45;34.52;96999.13;4251512;27;5724;-73
2023/03/15 15:49:19;;;;;;;;;;;;;;;12.46;34.45;96987.53;4251467;27;5705;-73
2023/03/15 15:51:28;;;;;;;;;;;;;;;12.46;34.38;96990.16;4251805;27;5624;-73
2023/03/15 15:53:32;;;;;;;;;;;;;;;12.47;34.32;96985.69;4251464;27;5870;-74
2023/03/15 15:55:38;;;;;;;;;;;;;;;12.46;34.03;96987.53;4251603;27;5609;-73
2023/03/15 15:57:41;;;;;;;;;;;;;;;12.47;33.88;96988.34;4251522;27;5736;-74
2023/03/15 15:59:45;;;;;;;;;;;;;;;12.50;33.78;96987.94;4251487;27;5632;-74
2023/03/15 16:01:50;;;;;;;;;;;;;;;12.49;33.68;96981.00;4251142;27;5624;-73
2023/03/15 16:04:03;;;;;;;;;;;;;;;12.48;33.72;96982.81;4251242;27;5625;-73
2023/03/15 16:06:16;;;;;;;;;;;;;;;12.48;33.61;96989.97;4250884;27;5617;-73
2023/03/15 16:08:22;;;;;;;;;;;;;;;12.50;33.40;96987.94;4251461;27;5838;-74
2023/03/15 16:10:29;;;;;;;;;;;;;;;12.53;33.19;96984.88;4251160;27;5732;-73
2023/03/15 16:12:32;;;;;;;;;;;;;;;12.52;32.93;96984.06;4251388;27;5629;-73
2023/03/15 16:14:35;;;;;;;;;;;;;;;12.54;33.04;96986.50;4251447;27;5617;-73
2023/03/15 16:16:38;;;;;;;;;;;;;;;12.55;32.83;96990.78;4250987;27;5872;-73
2023/03/15 16:18:42;;;;;;;;;;;;;;;12.52;32.61;96989.34;4250945;27;5712;-73
2023/03/15 16:20:45;;;;;;;;;;;;;;;12.53;32.45;96998.13;4251177;27;5882;-73
2023/03/15 16:22:52;;;;;;;;;;;;;;;12.53;32.47;96992.81;4251209;27;5624;-73
2023/03/15 16:24:56;;;;;;;;;;;;;;;12.54;32.48;97000.56;4250652;27;5824;-74
2023/03/15 16:27:01;;;;;;;;;;;;;;;12.54;32.50;97002.41;4250876;27;6224;-73
2023/03/15 16:29:14;;;;;;;;;;;;;;;12.51;32.27;97000.16;4251108;27;5739;-73
2023/03/15 16:31:17;;;;;;;;;;;;;;;12.50;32.29;97007.31;4250917;27;6743;-73
2023/03/15 16:33:21;;;;;;;;;;;;;;;12.50;31.93;97007.31;4250989;27;5919;-73
2023/03/15 16:35:32;;;;;;;;;;;;;;;12.49;32.02;97005.66;4250797;27;5625;-73
2023/03/15 16:37:35;;;;;;;;;;;;;;;12.50;31.95;97007.31;4250106;27;5655;-72
2023/03/15 16:39:42;;;;;;;;;;;;;;;12.49;31.76;97002.22;4250904;27;5767;-72
2023/03/15 16:41:45;;;;;;;;;;;;;;;12.48;31.79;97005.88;4251416;27;5708;-73
2023/03/15 16:43:48;;;;;;;;;;;;;;;12.48;31.46;97008.53;4251050;27;5719;-72
2023/03/15 16:45:51;;;;;;;;;;;;;;;12.48;31.51;97021.78;4251071;27;5632;-72
2023/03/15 16:47:55;;;;;;;;;;;;;;;12.45;31.51;97012.38;4250852;27;5851;-72
2023/03/15 16:49:58;;;;;;;;;;;;;;;12.45;31.49;97017.69;4249592;27;5582;-73
2023/03/15 16:52:03;;;;;;;;;;;;;;;12.44;31.59;97009.91;4250375;27;5708;-74
2023/03/15 16:54:06;;;;;;;;;;;;;;;12.44;31.14;97015.22;4250603;27;5691;-74
2023/03/15 16:56:26;;;;;;;;;;;;;;;12.41;31.14;97016.44;4242418;27;5745;-72
2023/03/15 16:58:29;;;;;;;;;;;;;;;12.42;31.39;97018.06;4251014;27;5683;-74
2023/03/15 17:00:32;;;;;;;;;;;;;;;12.38;30.93;97014.19;4250337;27;5613;-74
2023/03/15 17:02:36;;;;;;;;;;;;;;;12.40;30.74;97014.81;4250878;27;6429;-74
2023/03/15 17:04:39;;;;;;;;;;;;;;;12.37;30.85;97014.41;4250822;27;5971;-73
2023/03/15 17:06:44;;;;;;;;;;;;;;;12.35;30.89;97011.13;4250287;27;5716;-75
2023/03/15 17:08:47;;;;;;;;;;;;;;;12.35;30.68;97017.25;4250766;27;5613;-75
2023/03/15 17:10:50;;;;;;;;;;;;;;;12.35;30.70;97011.13;4250482;27;5632;-74
2023/03/15 17:12:56;;;;;;;;;;;;;;;12.33;30.66;97008.66;4250560;27;5704;-75